Terminal Aerodrome Forecast
Issued by NWS

Home | Current Version | Previous Version | Text Only | Print | Product List | Glossary On
Versions: 1 2 3 4 5 6 7 8 9 10 11 12 13 14
857
FTUS46 KHNX 030529
TAFMER
TAF
KMER 030529Z 0306/0406 12003KT 4SM BR SKC
     FM031000 11004KT 2SM BR SKC
      TEMPO 0313/0317 1SM BR
     FM031900 15003KT 4SM BR SKC
     FM032100 VRB03KT 6SM HZ SKC=

USA.gov is the U.S. government's official web portal to all federal, state and local government web resources and services.